Terminal Aerodrome Forecast
Issued by NWS

Home | Current Version | Previous Version | Text Only | Print | Product List | Glossary On
Versions: 1 2 3 4 5 6 7 8 9 10 11 12 13 14 15 16 17 18 19 20 21 22 23 24 25
000
FTUS44 KLIX 052331
TAFHUM
TAF
KHUM 052331Z 0600/0624 20010KT P6SM BKN040 OVC120
      TEMPO 0600/0602 VRB15G35KT 1SM TSRA BKN015CB
     FM060300 VRB03KT P6SM FEW030 OVC120
     FM061400 16006KT P6SM BKN025
     FM061700 17008KT P6SM SCT025 OVC060
     FM061900 16009KT P6SM OVC050 PROB30 0620/0623 P6SM TS BKN050CB=

USA.gov is the U.S. government's official web portal to all federal, state and local government web resources and services.